sensor_id;sensor_type;location;lat;lon;timestamp;pressure;altitude;pressure_sealevel;temperature;humidity
1776;BME280;885;42.626;23.200;2022-08-19T00:00:38;143179.47;;;20.00;83.58
1776;BME280;885;42.626;23.200;2022-08-19T00:03:05;143181.78;;;20.01;83.67
1776;BME280;885;42.626;23.200;2022-08-19T00:05:33;143536.69;;;19.93;84.76
1776;BME280;885;42.626;23.200;2022-08-19T00:08:32;143523.94;;;19.87;84.99
1776;BME280;885;42.626;23.200;2022-08-19T00:11:21;143129.72;;;19.78;85.14
1776;BME280;885;42.626;23.200;2022-08-19T00:13:57;142720.63;;;19.63;85.76
1776;BME280;885;42.626;23.200;2022-08-19T00:16:46;142286.47;;;19.37;87.53
1776;BME280;885;42.626;23.200;2022-08-19T00:19:22;142278.38;;;19.34;87.24
1776;BME280;885;42.626;23.200;2022-08-19T00:21:52;142292.19;;;19.40;85.98
1776;BME280;885;42.626;23.200;2022-08-19T00:24:24;142306.03;;;19.46;84.80
1776;BME280;885;42.626;23.200;2022-08-19T00:26:54;142310.63;;;19.48;84.67
1776;BME280;885;42.626;23.200;2022-08-19T00:29:41;142707.94;;;19.58;85.86
1776;BME280;885;42.626;23.200;2022-08-19T00:32:11;142695.22;;;19.52;85.57
1776;BME280;885;42.626;23.200;2022-08-19T00:34:52;142683.72;;;19.47;86.17
1776;BME280;885;42.626;23.200;2022-08-19T00:37:25;143447.38;;;19.54;87.58
1776;BME280;885;42.626;23.200;2022-08-19T00:40:05;143840.38;;;19.62;87.10
1776;BME280;885;42.626;23.200;2022-08-19T00:42:40;143447.38;;;19.54;87.33
1776;BME280;885;42.626;23.200;2022-08-19T00:45:21;143819.41;;;19.53;87.85
1776;BME280;885;42.626;23.200;2022-08-19T00:47:48;143805.44;;;19.47;88.26
1776;BME280;885;42.626;23.200;2022-08-19T00:50:19;143811.28;;;19.49;88.08
1776;BME280;885;42.626;23.200;2022-08-19T00:52:50;143411.38;;;19.38;87.78
1776;BME280;885;42.626;23.200;2022-08-19T00:55:21;143003.56;;;19.24;88.58
1776;BME280;885;42.626;23.200;2022-08-19T00:57:56;143366.09;;;19.19;89.23
1776;BME280;885;42.626;23.200;2022-08-19T01:00:26;143352.19;;;19.13;90.66
1776;BME280;885;42.626;23.200;2022-08-19T01:02:53;143341.78;;;19.08;90.29
1776;BME280;885;42.626;23.200;2022-08-19T01:05:27;143338.28;;;19.07;90.45
1776;BME280;885;42.626;23.200;2022-08-19T01:07:55;143322.06;;;18.99;90.72
1776;BME280;885;42.626;23.200;2022-08-19T01:10:27;142575.19;;;19.00;87.85
1776;BME280;885;42.626;23.200;2022-08-19T01:12:56;143345.25;;;19.10;88.54
1776;BME280;885;42.626;23.200;2022-08-19T01:15:27;143742.59;;;19.20;89.08
1776;BME280;885;42.626;23.200;2022-08-19T01:17:57;144135.47;;;19.28;89.30
1776;BME280;885;42.626;23.200;2022-08-19T01:20:25;144133.16;;;19.27;89.32
1776;BME280;885;42.626;23.200;2022-08-19T01:22:55;144128.47;;;19.25;89.59
1776;BME280;885;42.626;23.200;2022-08-19T01:25:26;143718.19;;;19.09;89.35
1776;BME280;885;42.626;23.200;2022-08-19T01:27:55;143333.63;;;19.04;89.08
1776;BME280;885;42.626;23.200;2022-08-19T01:30:26;143330.16;;;19.03;88.94
1776;BME280;885;42.626;23.200;2022-08-19T01:32:54;143333.63;;;19.04;89.25
1776;BME280;885;42.626;23.200;2022-08-19T01:35:22;143329.00;;;19.02;88.80
1776;BME280;885;42.626;23.200;2022-08-19T01:37:53;142941.09;;;18.96;88.21
1776;BME280;885;42.626;23.200;2022-08-19T01:40:22;142942.25;;;18.97;88.29
1776;BME280;885;42.626;23.200;2022-08-19T01:42:51;142550.97;;;18.89;88.13
1776;BME280;885;42.626;23.200;2022-08-19T01:45:18;142536.03;;;18.83;89.07
1776;BME280;885;42.626;23.200;2022-08-19T01:47:46;142524.47;;;18.78;88.87
1776;BME280;885;42.626;23.200;2022-08-19T01:50:13;142540.63;;;18.85;87.82
1776;BME280;885;42.626;23.200;2022-08-19T01:52:42;142921.44;;;18.88;88.53
1776;BME280;885;42.626;23.200;2022-08-19T01:55:13;142546.38;;;18.87;87.44
1776;BME280;885;42.626;23.200;2022-08-19T01:57:43;142149.50;;;18.77;87.87
1776;BME280;885;42.626;23.200;2022-08-19T02:00:13;142530.25;;;18.80;88.01
1776;BME280;885;42.626;23.200;2022-08-19T02:02:41;142155.25;;;18.80;87.56
1776;BME280;885;42.626;23.200;2022-08-19T02:05:09;142536.03;;;18.83;87.52
1776;BME280;885;42.626;23.200;2022-08-19T02:07:36;142511.81;;;18.72;88.76
1776;BME280;885;42.626;23.200;2022-08-19T02:10:03;142140.31;;;18.73;88.18
1776;BME280;885;42.626;23.200;2022-08-19T02:12:32;142525.63;;;18.78;87.93
1776;BME280;885;42.626;23.200;2022-08-19T02:14:59;142510.63;;;18.72;88.86
1776;BME280;885;42.626;23.200;2022-08-19T02:17:28;142511.81;;;18.72;89.25
1776;BME280;885;42.626;23.200;2022-08-19T02:19:55;142522.13;;;18.77;88.82
1776;BME280;885;42.626;23.200;2022-08-19T02:22:23;142904.09;;;18.80;88.96
1776;BME280;885;42.626;23.200;2022-08-19T02:24:51;142901.78;;;18.79;88.71
1776;BME280;885;42.626;23.200;2022-08-19T02:27:18;142524.47;;;18.78;88.40
1776;BME280;885;42.626;23.200;2022-08-19T02:29:47;142118.47;;;18.64;88.60
1776;BME280;885;42.626;23.200;2022-08-19T02:32:14;142507.19;;;18.70;88.69
1776;BME280;885;42.626;23.200;2022-08-19T02:34:42;142497.94;;;18.66;88.69
1776;BME280;885;42.626;23.200;2022-08-19T02:37:09;142491.03;;;18.63;89.23
1776;BME280;885;42.626;23.200;2022-08-19T02:39:55;142492.19;;;18.64;89.06
1776;BME280;885;42.626;23.200;2022-08-19T02:42:21;142495.63;;;18.65;88.98
1776;BME280;885;42.626;23.200;2022-08-19T02:44:50;142486.41;;;18.61;89.15
1776;BME280;885;42.626;23.200;2022-08-19T02:47:17;142465.66;;;18.52;90.08
1776;BME280;885;42.626;23.200;2022-08-19T02:49:44;142843.94;;;18.54;90.64
1776;BME280;885;42.626;23.200;2022-08-19T02:52:11;142848.56;;;18.56;90.23
1776;BME280;885;42.626;23.200;2022-08-19T02:54:39;142846.28;;;18.55;90.48
1776;BME280;885;42.626;23.200;2022-08-19T02:57:06;142454.16;;;18.47;90.30
1776;BME280;885;42.626;23.200;2022-08-19T02:59:33;142456.44;;;18.48;90.38
1776;BME280;885;42.626;23.200;2022-08-19T03:02:02;142447.22;;;18.44;90.28
1776;BME280;885;42.626;23.200;2022-08-19T03:04:29;142427.56;;;18.36;90.94
1776;BME280;885;42.626;23.200;2022-08-19T03:06:56;142810.38;;;18.40;91.19
1776;BME280;885;42.626;23.200;2022-08-19T03:09:23;142826.63;;;18.47;91.17
1776;BME280;885;42.626;23.200;2022-08-19T03:11:50;142830.09;;;18.48;90.81
1776;BME280;885;42.626;23.200;2022-08-19T03:14:16;142811.53;;;18.40;90.76
1776;BME280;885;42.626;23.200;2022-08-19T03:16:45;142820.84;;;18.44;90.66
1776;BME280;885;42.626;23.200;2022-08-19T03:19:16;142828.91;;;18.48;89.96
1776;BME280;885;42.626;23.200;2022-08-19T03:21:44;142837.03;;;18.51;89.49
1776;BME280;885;42.626;23.200;2022-08-19T03:24:12;142840.50;;;18.53;88.97
1776;BME280;885;42.626;23.200;2022-08-19T03:26:41;142827.78;;;18.47;89.36
1776;BME280;885;42.626;23.200;2022-08-19T03:29:09;142830.09;;;18.48;90.18
1776;BME280;885;42.626;23.200;2022-08-19T03:31:37;143210.75;;;18.51;90.53
1776;BME280;885;42.626;23.200;2022-08-19T03:34:05;143589.13;;;18.53;90.64
1776;BME280;885;42.626;23.200;2022-08-19T03:36:33;143982.75;;;18.62;90.92
1776;BME280;885;42.626;23.200;2022-08-19T03:39:01;143604.25;;;18.60;90.21
1776;BME280;885;42.626;23.200;2022-08-19T03:41:29;143599.59;;;18.58;90.59
1776;BME280;885;42.626;23.200;2022-08-19T03:43:57;143968.75;;;18.56;90.79
1776;BME280;885;42.626;23.200;2022-08-19T03:46:26;143604.25;;;18.60;89.74
1776;BME280;885;42.626;23.200;2022-08-19T03:48:54;143220.00;;;18.55;88.52
1776;BME280;885;42.626;23.200;2022-08-19T03:51:23;142841.66;;;18.53;88.11
1776;BME280;885;42.626;23.200;2022-08-19T03:53:52;143232.75;;;18.61;88.67
1776;BME280;885;42.626;23.200;2022-08-19T03:56:19;143605.38;;;18.60;89.17
1776;BME280;885;42.626;23.200;2022-08-19T03:58:46;143611.19;;;18.63;89.54
1776;BME280;885;42.626;23.200;2022-08-19T04:01:15;143985.06;;;18.63;90.06
1776;BME280;885;42.626;23.200;2022-08-19T04:03:43;144339.06;;;18.54;91.76
1776;BME280;885;42.626;23.200;2022-08-19T04:06:11;144344.91;;;18.57;92.36
1776;BME280;885;42.626;23.200;2022-08-19T04:08:38;144718.78;;;18.57;93.26
1776;BME280;885;42.626;23.200;2022-08-19T04:11:08;145089.19;;;18.55;93.93
1776;BME280;885;42.626;23.200;2022-08-19T04:13:35;145481.97;;;18.63;94.04
1776;BME280;885;42.626;23.200;2022-08-19T04:16:03;145870.16;;;18.69;94.27
1776;BME280;885;42.626;23.200;2022-08-19T04:18:30;145874.88;;;18.71;93.35
1776;BME280;885;42.626;23.200;2022-08-19T04:20:58;145489.00;;;18.66;92.89
1776;BME280;885;42.626;23.200;2022-08-19T04:23:26;145479.59;;;18.62;93.42
1776;BME280;885;42.626;23.200;2022-08-19T04:25:54;145853.59;;;18.62;94.47
1776;BME280;885;42.626;23.200;2022-08-19T04:28:23;145854.78;;;18.63;94.27
1776;BME280;885;42.626;23.200;2022-08-19T04:30:53;145854.78;;;18.63;94.15
1776;BME280;885;42.626;23.200;2022-08-19T04:33:23;146243.06;;;18.69;94.52
1776;BME280;885;42.626;23.200;2022-08-19T04:35:52;146239.50;;;18.67;94.21
1776;BME280;885;42.626;23.200;2022-08-19T04:38:21;146221.75;;;18.60;95.65
1776;BME280;885;42.626;23.200;2022-08-19T04:40:50;146601.72;;;18.62;95.23
1776;BME280;885;42.626;23.200;2022-08-19T04:43:38;146608.88;;;18.65;94.45
1776;BME280;885;42.626;23.200;2022-08-19T04:46:05;146625.53;;;18.72;93.50
1776;BME280;885;42.626;23.200;2022-08-19T04:48:33;146251.38;;;18.72;93.20
1776;BME280;885;42.626;23.200;2022-08-19T04:51:01;147016.34;;;18.79;94.31
1776;BME280;885;42.626;23.200;2022-08-19T04:53:33;147018.75;;;18.80;93.92
1776;BME280;885;42.626;23.200;2022-08-19T04:56:05;147027.06;;;18.84;93.74
1776;BME280;885;42.626;23.200;2022-08-19T04:58:33;147037.78;;;18.88;93.25
1776;BME280;885;42.626;23.200;2022-08-19T05:01:02;147035.38;;;18.87;93.08
1776;BME280;885;42.626;23.200;2022-08-19T05:03:29;147416.88;;;18.90;93.27
1776;BME280;885;42.626;23.200;2022-08-19T05:06:03;147421.66;;;18.92;93.11
1776;BME280;885;42.626;23.200;2022-08-19T05:08:30;147810.38;;;18.98;93.96
1776;BME280;885;42.626;23.200;2022-08-19T05:10:57;147437.19;;;18.99;92.84
1776;BME280;885;42.626;23.200;2022-08-19T05:13:25;147836.75;;;19.10;92.81
1776;BME280;885;42.626;23.200;2022-08-19T05:15:56;148212.47;;;19.10;93.59
1776;BME280;885;42.626;23.200;2022-08-19T05:18:24;148600.25;;;19.16;93.61
1776;BME280;885;42.626;23.200;2022-08-19T05:21:11;148996.59;;;19.25;94.03
1776;BME280;885;42.626;23.200;2022-08-19T05:23:56;148996.59;;;19.25;94.04
1776;BME280;885;42.626;23.200;2022-08-19T05:26:23;149015.91;;;19.33;93.72
1776;BME280;885;42.626;23.200;2022-08-19T05:28:51;149018.34;;;19.34;93.53
1776;BME280;885;42.626;23.200;2022-08-19T05:31:18;149424.59;;;19.47;93.16
1776;BME280;885;42.626;23.200;2022-08-19T05:33:47;149441.56;;;19.54;92.37
1776;BME280;885;42.626;23.200;2022-08-19T05:36:15;149827.41;;;19.58;92.64
1776;BME280;885;42.626;23.200;2022-08-19T05:38:44;149843.16;;;19.65;91.97
1776;BME280;885;42.626;23.200;2022-08-19T05:41:12;150238.88;;;19.73;91.46
1776;BME280;885;42.626;23.200;2022-08-19T05:43:39;150661.59;;;19.93;91.46
1776;BME280;885;42.626;23.200;2022-08-19T05:46:07;151083.38;;;20.12;90.65
1776;BME280;885;42.626;23.200;2022-08-19T05:48:35;151520.19;;;20.37;88.67
1776;BME280;885;42.626;23.200;2022-08-19T05:51:05;152320.78;;;20.57;88.55
1776;BME280;885;42.626;23.200;2022-08-19T05:53:33;152743.56;;;20.77;87.77
1776;BME280;885;42.626;23.200;2022-08-19T05:56:03;152775.75;;;20.90;86.45
1776;BME280;885;42.626;23.200;2022-08-19T05:58:30;152788.09;;;20.95;86.47
1776;BME280;885;42.626;23.200;2022-08-19T06:00:58;153194.00;;;21.07;86.55
1776;BME280;885;42.626;23.200;2022-08-19T06:03:29;153582.63;;;21.12;86.65
1776;BME280;885;42.626;23.200;2022-08-19T06:05:56;153605.00;;;21.21;86.62
1776;BME280;885;42.626;23.200;2022-08-19T06:08:26;154006.25;;;21.31;85.41
1776;BME280;885;42.626;23.200;2022-08-19T06:10:53;153611.25;;;21.23;85.43
1776;BME280;885;42.626;23.200;2022-08-19T06:13:21;153609.97;;;21.23;85.79
1776;BME280;885;42.626;23.200;2022-08-19T06:15:49;153634.84;;;21.33;84.84
1776;BME280;885;42.626;23.200;2022-08-19T06:18:16;153642.31;;;21.36;84.01
1776;BME280;885;42.626;23.200;2022-08-19T06:20:42;153632.38;;;21.32;84.35
1776;BME280;885;42.626;23.200;2022-08-19T06:23:09;153632.38;;;21.32;84.33
1776;BME280;885;42.626;23.200;2022-08-19T06:25:38;154056.09;;;21.51;84.02
1776;BME280;885;42.626;23.200;2022-08-19T06:28:05;154475.16;;;21.68;82.66
1776;BME280;885;42.626;23.200;2022-08-19T06:30:32;154873.13;;;21.77;83.21
1776;BME280;885;42.626;23.200;2022-08-19T06:32:59;154871.88;;;21.76;83.26
1776;BME280;885;42.626;23.200;2022-08-19T06:35:26;154861.84;;;21.72;83.32
1776;BME280;885;42.626;23.200;2022-08-19T06:37:54;154879.41;;;21.79;83.87
1776;BME280;885;42.626;23.200;2022-08-19T06:40:21;155276.34;;;21.87;83.79
1776;BME280;885;42.626;23.200;2022-08-19T06:42:50;155689.75;;;22.02;83.34
1776;BME280;885;42.626;23.200;2022-08-19T06:45:17;155711.16;;;22.10;82.64
1776;BME280;885;42.626;23.200;2022-08-19T06:47:45;156123.56;;;22.25;82.21
1776;BME280;885;42.626;23.200;2022-08-19T06:50:13;156152.66;;;22.36;81.90
1776;BME280;885;42.626;23.200;2022-08-19T06:52:40;155798.13;;;22.45;78.77
1776;BME280;885;42.626;23.200;2022-08-19T06:55:07;155467.47;;;22.64;74.73
1776;BME280;885;42.626;23.200;2022-08-19T06:57:34;156252.53;;;22.76;76.32
1776;BME280;885;42.626;23.200;2022-08-19T07:00:04;156673.09;;;22.93;76.81
1776;BME280;885;42.626;23.200;2022-08-19T07:02:32;157485.69;;;23.16;76.32
1776;BME280;885;42.626;23.200;2022-08-19T07:05:04;158364.34;;;23.64;75.81
1776;BME280;885;42.626;23.200;2022-08-19T07:07:31;160960.56;;;24.90;71.47
1776;BME280;885;42.626;23.200;2022-08-19T07:09:58;163231.06;;;26.33;66.64
1776;BME280;885;42.626;23.200;2022-08-19T07:12:26;165093.22;;;27.62;62.13
1776;BME280;885;42.626;23.200;2022-08-19T07:14:53;165154.47;;;27.85;60.01
1776;BME280;885;42.626;23.200;2022-08-19T07:17:21;164299.03;;;27.50;60.08
1776;BME280;885;42.626;23.200;2022-08-19T07:19:48;163025.66;;;27.00;60.85
1776;BME280;885;42.626;23.200;2022-08-19T07:22:15;162911.25;;;26.56;64.17
1776;BME280;885;42.626;23.200;2022-08-19T07:24:43;160859.06;;;25.98;60.62
1776;BME280;885;42.626;23.200;2022-08-19T07:27:10;160796.81;;;25.74;64.12
1776;BME280;885;42.626;23.200;2022-08-19T07:29:37;159578.00;;;25.43;61.42
1776;BME280;885;42.626;23.200;2022-08-19T07:32:04;159198.63;;;25.43;61.15
1776;BME280;885;42.626;23.200;2022-08-19T07:34:33;159983.22;;;25.53;63.39
1776;BME280;885;42.626;23.200;2022-08-19T07:37:03;159596.00;;;25.50;62.31
1776;BME280;885;42.626;23.200;2022-08-19T07:39:33;159216.56;;;25.50;61.50
1776;BME280;885;42.626;23.200;2022-08-19T07:42:02;158455.28;;;25.49;57.79
1776;BME280;885;42.626;23.200;2022-08-19T07:44:31;158466.81;;;25.53;59.45
1776;BME280;885;42.626;23.200;2022-08-19T07:46:59;160746.16;;;25.54;68.48
1776;BME280;885;42.626;23.200;2022-08-19T07:49:26;160740.97;;;25.52;69.10
1776;BME280;885;42.626;23.200;2022-08-19T07:51:57;160731.91;;;25.49;68.72
1776;BME280;885;42.626;23.200;2022-08-19T07:54:29;159230.72;;;25.55;60.35
1776;BME280;885;42.626;23.200;2022-08-19T07:56:56;160409.31;;;25.71;64.57
1776;BME280;885;42.626;23.200;2022-08-19T07:59:24;161184.28;;;25.77;67.09
1776;BME280;885;42.626;23.200;2022-08-19T08:01:51;161184.28;;;25.77;68.73
1776;BME280;885;42.626;23.200;2022-08-19T08:04:19;160818.88;;;25.82;65.78
1776;BME280;885;42.626;23.200;2022-08-19T08:07:06;160857.75;;;25.97;64.47
1776;BME280;885;42.626;23.200;2022-08-19T08:09:50;161254.56;;;26.04;65.20
1776;BME280;885;42.626;23.200;2022-08-19T08:12:20;160520.72;;;26.14;60.33
1776;BME280;885;42.626;23.200;2022-08-19T08:14:52;159804.75;;;26.31;56.44
1776;BME280;885;42.626;23.200;2022-08-19T08:17:23;160211.88;;;26.42;57.59
1776;BME280;885;42.626;23.200;2022-08-19T08:19:50;160250.63;;;26.57;55.46
1776;BME280;885;42.626;23.200;2022-08-19T08:22:21;160268.75;;;26.64;55.67
1776;BME280;885;42.626;23.200;2022-08-19T08:25:08;159889.81;;;26.64;53.41
1776;BME280;885;42.626;23.200;2022-08-19T08:27:36;160316.59;;;26.83;54.56
1776;BME280;885;42.626;23.200;2022-08-19T08:30:06;159974.97;;;26.98;52.82
1776;BME280;885;42.626;23.200;2022-08-19T08:32:34;160020.09;;;27.15;50.83
1776;BME280;885;42.626;23.200;2022-08-19T08:35:02;160066.53;;;27.33;50.32
1776;BME280;885;42.626;23.200;2022-08-19T08:37:30;160484.69;;;27.48;50.35
1776;BME280;885;42.626;23.200;2022-08-19T08:39:57;160109.13;;;27.50;50.40
1776;BME280;885;42.626;23.200;2022-08-19T08:42:27;160143.94;;;27.64;48.60
1776;BME280;885;42.626;23.200;2022-08-19T08:44:59;160171.00;;;27.74;48.02
1776;BME280;885;42.626;23.200;2022-08-19T08:47:36;160598.44;;;27.92;48.04
1776;BME280;885;42.626;23.200;2022-08-19T08:50:06;161008.03;;;28.03;49.23
1776;BME280;885;42.626;23.200;2022-08-19T08:52:43;160650.22;;;28.12;47.33
1776;BME280;885;42.626;23.200;2022-08-19T08:55:14;160274.28;;;28.14;46.99
1776;BME280;885;42.626;23.200;2022-08-19T08:57:47;160266.50;;;28.11;47.58
1776;BME280;885;42.626;23.200;2022-08-19T09:00:18;160667.06;;;28.19;48.11
1776;BME280;885;42.626;23.200;2022-08-19T09:02:46;160727.81;;;28.43;46.85
1776;BME280;885;42.626;23.200;2022-08-19T09:05:13;161161.09;;;28.63;46.10
1776;BME280;885;42.626;23.200;2022-08-19T09:07:46;160806.78;;;28.73;45.29
1776;BME280;885;42.626;23.200;2022-08-19T09:10:22;161225.94;;;28.88;45.46
1776;BME280;885;42.626;23.200;2022-08-19T09:13:00;161647.91;;;29.03;45.77
1776;BME280;885;42.626;23.200;2022-08-19T09:15:34;162051.88;;;29.12;46.63
1776;BME280;885;42.626;23.200;2022-08-19T09:18:04;162023.22;;;29.01;47.67
1776;BME280;885;42.626;23.200;2022-08-19T09:20:32;161641.44;;;29.01;46.70
1776;BME280;885;42.626;23.200;2022-08-19T09:23:00;161697.38;;;29.23;45.66
1776;BME280;885;42.626;23.200;2022-08-19T09:25:29;162126.25;;;29.41;45.61
1776;BME280;885;42.626;23.200;2022-08-19T09:27:57;162572.38;;;29.65;44.43
1776;BME280;885;42.626;23.200;2022-08-19T09:30:30;162622.09;;;29.85;43.90
1776;BME280;885;42.626;23.200;2022-08-19T09:32:57;162619.47;;;29.83;44.13
1776;BME280;885;42.626;23.200;2022-08-19T09:35:27;162615.56;;;29.82;44.69
1776;BME280;885;42.626;23.200;2022-08-19T09:37:55;162658.69;;;29.99;43.36
1776;BME280;885;42.626;23.200;2022-08-19T09:40:24;162697.91;;;30.14;42.64
1776;BME280;885;42.626;23.200;2022-08-19T09:42:51;163071.28;;;30.10;44.88
1776;BME280;885;42.626;23.200;2022-08-19T09:45:20;162340.13;;;30.23;42.32
1776;BME280;885;42.626;23.200;2022-08-19T09:47:48;162755.47;;;30.36;42.23
1776;BME280;885;42.626;23.200;2022-08-19T09:50:16;162789.50;;;30.49;41.54
1776;BME280;885;42.626;23.200;2022-08-19T09:52:43;162405.41;;;30.48;41.14
1776;BME280;885;42.626;23.200;2022-08-19T09:55:10;162421.06;;;30.54;41.15
1776;BME280;885;42.626;23.200;2022-08-19T09:57:39;162860.13;;;30.76;40.29
1776;BME280;885;42.626;23.200;2022-08-19T10:00:08;162895.44;;;30.90;40.47
1776;BME280;885;42.626;23.200;2022-08-19T10:02:35;163686.59;;;30.99;41.98
1776;BME280;885;42.626;23.200;2022-08-19T10:05:03;162908.56;;;30.95;40.31
1776;BME280;885;42.626;23.200;2022-08-19T10:07:47;162126.88;;;30.89;39.31
1776;BME280;885;42.626;23.200;2022-08-19T10:10:14;162095.59;;;30.77;39.94
1776;BME280;885;42.626;23.200;2022-08-19T10:12:42;162079.97;;;30.71;39.96
1776;BME280;885;42.626;23.200;2022-08-19T10:15:13;161729.63;;;30.83;38.53
1776;BME280;885;42.626;23.200;2022-08-19T10:17:40;161777.69;;;31.02;37.78
1776;BME280;885;42.626;23.200;2022-08-19T10:20:08;161830.94;;;31.22;37.26
1776;BME280;885;42.626;23.200;2022-08-19T10:22:34;162263.63;;;31.42;38.31
1776;BME280;885;42.626;23.200;2022-08-19T10:25:06;162717.41;;;31.69;37.05
1776;BME280;885;42.626;23.200;2022-08-19T10:27:34;162317.00;;;31.62;36.72
1776;BME280;885;42.626;23.200;2022-08-19T10:30:03;161552.78;;;31.63;35.28
1776;BME280;885;42.626;23.200;2022-08-19T10:32:30;161984.22;;;31.82;35.32
1776;BME280;885;42.626;23.200;2022-08-19T10:34:57;162031.06;;;32.00;34.51
1776;BME280;885;42.626;23.200;2022-08-19T10:37:23;162050.53;;;32.07;34.77
1776;BME280;885;42.626;23.200;2022-08-19T10:39:50;162083.03;;;32.20;34.78
1776;BME280;885;42.626;23.200;2022-08-19T10:42:18;162500.69;;;32.33;34.82
1776;BME280;885;42.626;23.200;2022-08-19T10:44:46;161757.63;;;32.43;33.51
1776;BME280;885;42.626;23.200;2022-08-19T10:47:14;161760.22;;;32.44;33.58
1776;BME280;885;42.626;23.200;2022-08-19T10:49:41;161349.22;;;32.33;34.42
1776;BME280;885;42.626;23.200;2022-08-19T10:52:34;161001.63;;;32.47;32.29
1776;BME280;885;42.626;23.200;2022-08-19T10:55:03;161421.72;;;32.61;32.63
1776;BME280;885;42.626;23.200;2022-08-19T10:57:48;161851.03;;;32.79;33.83
1776;BME280;885;42.626;23.200;2022-08-19T11:00:15;161897.69;;;32.97;32.69
1776;BME280;885;42.626;23.200;2022-08-19T11:02:44;161931.47;;;33.10;32.48
1776;BME280;885;42.626;23.200;2022-08-19T11:05:11;161512.22;;;32.97;32.78
1776;BME280;885;42.626;23.200;2022-08-19T11:07:39;161132.00;;;32.98;32.40
1776;BME280;885;42.626;23.200;2022-08-19T11:10:08;161922.41;;;33.07;33.92
1776;BME280;885;42.626;23.200;2022-08-19T11:12:36;161945.75;;;33.16;33.76
1776;BME280;885;42.626;23.200;2022-08-19T11:15:06;162740.53;;;33.26;34.60
1776;BME280;885;42.626;23.200;2022-08-19T11:17:35;162322.28;;;33.13;34.65
1776;BME280;885;42.626;23.200;2022-08-19T11:20:08;161100.97;;;32.86;33.94
1776;BME280;885;42.626;23.200;2022-08-19T11:22:35;161478.59;;;32.83;34.61
1776;BME280;885;42.626;23.200;2022-08-19T11:25:03;161873.06;;;32.87;36.09
1776;BME280;885;42.626;23.200;2022-08-19T11:27:30;161475.97;;;32.82;34.58
1776;BME280;885;42.626;23.200;2022-08-19T11:29:56;161099.69;;;32.85;34.48
1776;BME280;885;42.626;23.200;2022-08-19T11:32:23;161094.53;;;32.83;33.95
1776;BME280;885;42.626;23.200;2022-08-19T11:34:50;161473.41;;;32.81;35.52
1776;BME280;885;42.626;23.200;2022-08-19T11:37:18;161461.78;;;32.77;35.52
1776;BME280;885;42.626;23.200;2022-08-19T11:39:45;160655.13;;;32.62;35.30
1776;BME280;885;42.626;23.200;2022-08-19T11:42:11;161041.63;;;32.63;36.13
1776;BME280;885;42.626;23.200;2022-08-19T11:44:56;160664.16;;;32.65;35.20
1776;BME280;885;42.626;23.200;2022-08-19T11:47:22;160715.63;;;32.85;34.32
1776;BME280;885;42.626;23.200;2022-08-19T11:49:49;160728.53;;;32.91;34.23
1776;BME280;885;42.626;23.200;2022-08-19T11:52:19;161174.56;;;33.15;34.14
1776;BME280;885;42.626;23.200;2022-08-19T11:54:46;161615.78;;;33.37;34.68
1776;BME280;885;42.626;23.200;2022-08-19T11:57:13;161195.19;;;33.23;33.83
1776;BME280;885;42.626;23.200;2022-08-19T11:59:42;161565.31;;;33.17;35.64
1776;BME280;885;42.626;23.200;2022-08-19T12:02:09;161965.19;;;33.23;35.96
1776;BME280;885;42.626;23.200;2022-08-19T12:04:36;161975.56;;;33.27;36.18
1776;BME280;885;42.626;23.200;2022-08-19T12:07:03;162041.78;;;33.53;34.61
1776;BME280;885;42.626;23.200;2022-08-19T12:09:31;162457.53;;;33.65;34.92
1776;BME280;885;42.626;23.200;2022-08-19T12:11:59;161637.72;;;33.45;34.71
1776;BME280;885;42.626;23.200;2022-08-19T12:14:27;161206.81;;;33.27;34.29
1776;BME280;885;42.626;23.200;2022-08-19T12:16:56;161654.59;;;33.52;34.20
1776;BME280;885;42.626;23.200;2022-08-19T12:19:22;161683.09;;;33.63;34.07
1776;BME280;885;42.626;23.200;2022-08-19T12:21:51;162122.19;;;33.84;33.88
1776;BME280;885;42.626;23.200;2022-08-19T12:24:20;161763.31;;;33.94;32.81
1776;BME280;885;42.626;23.200;2022-08-19T12:26:50;161747.78;;;33.88;33.51
1776;BME280;885;42.626;23.200;2022-08-19T12:29:17;162179.31;;;34.06;33.77
1776;BME280;885;42.626;23.200;2022-08-19T12:31:44;162101.44;;;33.76;35.15
1776;BME280;885;42.626;23.200;2022-08-19T12:34:11;161284.34;;;33.57;34.70
1776;BME280;885;42.626;23.200;2022-08-19T12:36:38;161323.00;;;33.73;34.36
1776;BME280;885;42.626;23.200;2022-08-19T12:39:05;160803.22;;;33.20;35.73
1776;BME280;885;42.626;23.200;2022-08-19T12:41:31;160812.22;;;33.23;35.31
1776;BME280;885;42.626;23.200;2022-08-19T12:44:00;159957.88;;;32.89;35.85
1776;BME280;885;42.626;23.200;2022-08-19T12:46:29;161213.28;;;33.30;35.94
1776;BME280;885;42.626;23.200;2022-08-19T12:48:56;160902.38;;;33.58;34.30
1776;BME280;885;42.626;23.200;2022-08-19T12:51:23;160942.31;;;33.74;34.43
1776;BME280;885;42.626;23.200;2022-08-19T12:53:52;160127.03;;;33.56;33.03
1776;BME280;885;42.626;23.200;2022-08-19T12:56:19;159304.72;;;33.35;32.88
1776;BME280;885;42.626;23.200;2022-08-19T12:58:45;160534.59;;;33.65;33.51
1776;BME280;885;42.626;23.200;2022-08-19T13:01:15;160929.41;;;33.69;34.81
1776;BME280;885;42.626;23.200;2022-08-19T13:03:44;160503.78;;;33.53;34.12
1776;BME280;885;42.626;23.200;2022-08-19T13:06:11;158811.16;;;32.92;34.40
1776;BME280;885;42.626;23.200;2022-08-19T13:08:38;159238.47;;;33.09;34.67
1776;BME280;885;42.626;23.200;2022-08-19T13:11:11;157556.22;;;32.50;34.13
1776;BME280;885;42.626;23.200;2022-08-19T13:13:39;158358.81;;;32.64;35.22
1776;BME280;885;42.626;23.200;2022-08-19T13:16:08;159590.53;;;32.96;36.41
1776;BME280;885;42.626;23.200;2022-08-19T13:18:36;159188.69;;;32.89;36.15
1776;BME280;885;42.626;23.200;2022-08-19T13:21:04;158821.31;;;32.96;34.80